Juan Santamar?a International Airport (SJO/MROC)


Airport Information
Location: San Jose,
Coordinates: 9.9939 / -84.2089
Field Elevation: 3,020ft
Longest Runway: 9,895ft
ILS Approaches: YES
Landing Fees: $1,825 per flight
Jet A Price: $0.54/lbs

Current Weather
METAR: MROC 011200Z VRB01KT 9999 BCFG FEW005 BKN015 20/19 A3003 NOSIG
TAF: MROC 011136Z 0112/0212 25004KT 9999 SCT010 BKN080 TX27/0118Z TN18/0211Z TEMPO 0112/0114 VRB02KT BCFG BKN015 TEMPO 0120/0124 TSRA FEW015CB BKN020 TEMPO 0200/0206 VRB02KT 5000 RA BR BKN015 BECMG 0206/0208 09004KT

No chart available
Flight Arriving
CPX772 KMIA - Miami International Airport
United StatesFlorida Miami, Florida
Flight Aircraft Departing
CPX732 B763
KMIA - Miami International Airport
United StatesFlorida Miami, Florida



Recent Arrivals
Date Flight Type Depart
09/13/2022 CPX732 B763 Miami Intl (KMIA)
08/13/2022 CPX732 B763 Miami Intl (KMIA)
07/17/2022 CPX732 B763 Miami Intl (KMIA)
12/23/2021 CPX3153 B762 Benito Juárez Intl (MMMX)
08/28/2020 CPX619 B763 Miami Intl (KMIA)
06/21/2019 CPX719 B763 Miami Intl (KMIA)
Recent Departures
Date Flight Type Arrive
09/14/2022 CPX772 B763 Miami Intl (KMIA)
08/13/2022 CPX772 B763 Miami Intl (KMIA)
07/18/2022 CPX772 B763 Miami Intl (KMIA)
12/28/2021 CPX3154 B762 Benito Juárez Intl (MMMX)
08/28/2020 CPX618 B763 Miami Intl (KMIA)
06/21/2019 CPX718 B763 Miami Intl (KMIA)